Atlantic - Newfoundland: Past 24 Hour Conditions

 

Burgeo

04:30 AM NDT 29 August 2014
This table is a summary of hourly weather conditions for the past 24 hours.
Date / Time
(NDT)
Wind(knots) Conditions Visibility(km) Pressure(kPa) Air tempC) Relative humidity(%) Dew pointC)
29 August 2014
4:30 ENE 27 gust 35 N/A N/A 100.3 12 77 8
3:30 NE 22 gust 38 N/A N/A 100.3 12 77 8
2:30 ENE 32 gust 42 N/A N/A 100.3 12 77 8
1:30 ENE 25 gust 33 N/A N/A 100.4 12 77 8
0:30 ENE 22 gust 31 N/A N/A 100.4 12 79 9
28 August 2014
23:30 ENE 26 gust 32 N/A N/A 100.4 13 80 9
22:30 ENE 23 gust 34 N/A N/A 100.5 13 80 10
21:30 ENE 21 gust 26 N/A N/A 100.5 13 82 10
20:30 ENE 21 gust 27 N/A N/A 100.5 14 84 11
19:30 ENE 19 gust 26 N/A N/A 100.5 14 86 11
18:30 ENE 22 gust 28 N/A N/A 100.5 14 86 12
17:30 ENE 20 N/A N/A 100.5 14 88 12
16:30 ENE 14 N/A N/A 100.5 15 87 12
15:30 NE 15 N/A N/A 100.6 15 83 12
14:30 ENE 15 gust 21 N/A N/A 100.6 16 80 12
13:30 ENE 16 N/A N/A 100.7 16 79 12
12:30 ENE 13 gust 18 N/A N/A 100.7 16 80 12
11:30 ENE 17 N/A N/A 100.7 16 79 12
10:30 ENE 15 N/A N/A 100.8 15 81 12
9:30 NE 10 gust 16 N/A N/A 100.8 15 84 12
8:30 ENE 14 N/A N/A 100.7 16 84 13
7:30 NE 10 N/A N/A 100.7 16 86 14
6:30 ENE 10 N/A N/A 100.7 17 88 15
5:30 NE 4 N/A N/A 100.7 19 93 17
4:30 NNW 2 N/A N/A 100.7 18 93 17
 
Map of Atlantic - Newfoundland marine weather areas Southwestern Grand Banks - 44138 Banquereau - 44139 Tail of the Bank - 44140 Nickerson Bank - 44251 Northeast Burgeo Bank - 44255 Blanc-Sablon Airport Cap Whittle Chevery Natashquan Airport Heath Point Miscou Island Grand Étang Ingonish Beach North Mountain St.Paul Island J.A. Douglas McCurdy Sydney Airport Charlottetown Airport East Point North Cape Argentia Bonavista Burgeo Cape Race Corner Brook Daniel's Harbour Englee Ferolle Point La Scie Port aux Basques Rocky Harbour Sagona Island St. Anthony Airport St. John's Int'l Airport St. Lawrence Stephenville Airport Twillingate Winterland Wreckhouse Cartwright Airport Mary's Harbour Grates Cove Pool's Island Marticot Island Long Pond Îles de la Madeleine Airport
Legend: buoyBuoy land stationLand Station